sensor_id;sensor_type;location;lat;lon;timestamp;temperature;humidity
13707;DHT22;6925;47.816;13.072;2022-09-17T00:01:40;15.00;79.50
13707;DHT22;6925;47.816;13.072;2022-09-17T00:04:09;15.00;80.30
13707;DHT22;6925;47.816;13.072;2022-09-17T00:06:36;15.00;80.30
13707;DHT22;6925;47.816;13.072;2022-09-17T00:09:05;15.00;79.60
13707;DHT22;6925;47.816;13.072;2022-09-17T00:11:35;15.10;80.30
13707;DHT22;6925;47.816;13.072;2022-09-17T00:14:04;15.10;80.40
13707;DHT22;6925;47.816;13.072;2022-09-17T00:16:37;15.00;78.90
13707;DHT22;6925;47.816;13.072;2022-09-17T00:19:12;15.00;79.30
13707;DHT22;6925;47.816;13.072;2022-09-17T00:21:40;15.00;79.90
13707;DHT22;6925;47.816;13.072;2022-09-17T00:24:10;15.00;80.30
13707;DHT22;6925;47.816;13.072;2022-09-17T00:26:42;15.00;80.20
13707;DHT22;6925;47.816;13.072;2022-09-17T00:29:10;15.00;80.20
13707;DHT22;6925;47.816;13.072;2022-09-17T00:31:37;15.00;80.30
13707;DHT22;6925;47.816;13.072;2022-09-17T00:34:07;15.00;80.50
13707;DHT22;6925;47.816;13.072;2022-09-17T00:36:35;15.00;80.00
13707;DHT22;6925;47.816;13.072;2022-09-17T00:39:03;15.00;80.50
13707;DHT22;6925;47.816;13.072;2022-09-17T00:41:31;15.00;80.50
13707;DHT22;6925;47.816;13.072;2022-09-17T00:44:00;15.10;80.50
13707;DHT22;6925;47.816;13.072;2022-09-17T00:46:32;15.00;80.00
13707;DHT22;6925;47.816;13.072;2022-09-17T00:49:02;15.00;80.10
13707;DHT22;6925;47.816;13.072;2022-09-17T00:51:36;15.00;80.30
13707;DHT22;6925;47.816;13.072;2022-09-17T00:54:07;15.10;80.20
13707;DHT22;6925;47.816;13.072;2022-09-17T00:56:37;15.10;80.20
13707;DHT22;6925;47.816;13.072;2022-09-17T00:59:05;15.10;80.10
13707;DHT22;6925;47.816;13.072;2022-09-17T01:01:33;15.10;80.30
13707;DHT22;6925;47.816;13.072;2022-09-17T01:04:00;15.10;80.00
13707;DHT22;6925;47.816;13.072;2022-09-17T01:06:33;15.10;80.00
13707;DHT22;6925;47.816;13.072;2022-09-17T01:09:06;15.10;79.70
13707;DHT22;6925;47.816;13.072;2022-09-17T01:11:55;15.10;80.00
13707;DHT22;6925;47.816;13.072;2022-09-17T01:14:37;15.10;80.40
13707;DHT22;6925;47.816;13.072;2022-09-17T01:17:14;15.10;79.20
13707;DHT22;6925;47.816;13.072;2022-09-17T01:22:58;15.10;80.20
13707;DHT22;6925;47.816;13.072;2022-09-17T01:25:33;15.00;78.90
13707;DHT22;6925;47.816;13.072;2022-09-17T01:28:37;15.00;79.60
13707;DHT22;6925;47.816;13.072;2022-09-17T01:31:41;14.90;79.10
13707;DHT22;6925;47.816;13.072;2022-09-17T01:34:18;14.90;79.60
13707;DHT22;6925;47.816;13.072;2022-09-17T01:36:58;14.90;79.60
13707;DHT22;6925;47.816;13.072;2022-09-17T01:39:36;14.90;79.30
13707;DHT22;6925;47.816;13.072;2022-09-17T01:42:15;14.90;79.70
13707;DHT22;6925;47.816;13.072;2022-09-17T01:44:54;14.90;79.80
13707;DHT22;6925;47.816;13.072;2022-09-17T01:47:25;14.90;79.50
13707;DHT22;6925;47.816;13.072;2022-09-17T01:50:00;14.90;79.50
13707;DHT22;6925;47.816;13.072;2022-09-17T01:52:31;14.90;79.70
13707;DHT22;6925;47.816;13.072;2022-09-17T01:55:03;14.90;79.70
13707;DHT22;6925;47.816;13.072;2022-09-17T01:57:34;14.90;79.80
13707;DHT22;6925;47.816;13.072;2022-09-17T02:00:05;14.90;79.50
13707;DHT22;6925;47.816;13.072;2022-09-17T02:02:38;14.90;79.50
13707;DHT22;6925;47.816;13.072;2022-09-17T02:05:09;14.90;79.70
13707;DHT22;6925;47.816;13.072;2022-09-17T02:07:40;14.90;79.40
13707;DHT22;6925;47.816;13.072;2022-09-17T02:10:11;14.90;79.70
13707;DHT22;6925;47.816;13.072;2022-09-17T02:12:43;14.90;79.60
13707;DHT22;6925;47.816;13.072;2022-09-17T02:15:16;14.90;79.50
13707;DHT22;6925;47.816;13.072;2022-09-17T02:17:49;14.90;79.30
13707;DHT22;6925;47.816;13.072;2022-09-17T02:20:20;14.80;79.30
13707;DHT22;6925;47.816;13.072;2022-09-17T02:22:55;14.80;80.00
13707;DHT22;6925;47.816;13.072;2022-09-17T02:25:27;14.80;79.90
13707;DHT22;6925;47.816;13.072;2022-09-17T02:28:00;14.80;79.80
13707;DHT22;6925;47.816;13.072;2022-09-17T02:30:28;14.80;79.60
13707;DHT22;6925;47.816;13.072;2022-09-17T02:32:57;14.80;79.10
13707;DHT22;6925;47.816;13.072;2022-09-17T02:35:24;14.80;79.70
13707;DHT22;6925;47.816;13.072;2022-09-17T02:37:51;14.70;78.80
13707;DHT22;6925;47.816;13.072;2022-09-17T02:40:20;14.70;79.40
13707;DHT22;6925;47.816;13.072;2022-09-17T02:43:07;14.70;79.90
13707;DHT22;6925;47.816;13.072;2022-09-17T02:45:44;14.70;80.10
13707;DHT22;6925;47.816;13.072;2022-09-17T02:48:31;14.80;79.90
13707;DHT22;6925;47.816;13.072;2022-09-17T02:51:10;14.80;79.60
13707;DHT22;6925;47.816;13.072;2022-09-17T02:53:46;14.80;79.70
13707;DHT22;6925;47.816;13.072;2022-09-17T02:56:22;14.80;79.80
13707;DHT22;6925;47.816;13.072;2022-09-17T02:58:55;14.80;79.90
13707;DHT22;6925;47.816;13.072;2022-09-17T03:01:32;14.80;79.60
13707;DHT22;6925;47.816;13.072;2022-09-17T03:04:04;14.80;79.50
13707;DHT22;6925;47.816;13.072;2022-09-17T03:06:34;14.70;79.30
13707;DHT22;6925;47.816;13.072;2022-09-17T03:09:00;14.80;79.40
13707;DHT22;6925;47.816;13.072;2022-09-17T03:11:28;14.80;79.60
13707;DHT22;6925;47.816;13.072;2022-09-17T03:13:55;14.70;78.80
13707;DHT22;6925;47.816;13.072;2022-09-17T03:16:23;14.70;78.40
13707;DHT22;6925;47.816;13.072;2022-09-17T03:18:51;14.70;78.80
13707;DHT22;6925;47.816;13.072;2022-09-17T03:21:19;14.70;79.30
13707;DHT22;6925;47.816;13.072;2022-09-17T03:23:46;14.70;79.20
13707;DHT22;6925;47.816;13.072;2022-09-17T03:26:13;14.70;79.20
13707;DHT22;6925;47.816;13.072;2022-09-17T03:28:40;14.70;79.20
13707;DHT22;6925;47.816;13.072;2022-09-17T03:31:08;14.70;78.70
13707;DHT22;6925;47.816;13.072;2022-09-17T03:33:35;14.60;78.80
13707;DHT22;6925;47.816;13.072;2022-09-17T03:36:02;14.60;79.10
13707;DHT22;6925;47.816;13.072;2022-09-17T03:38:32;14.60;78.90
13707;DHT22;6925;47.816;13.072;2022-09-17T03:41:01;14.60;78.60
13707;DHT22;6925;47.816;13.072;2022-09-17T03:43:29;14.50;78.10
13707;DHT22;6925;47.816;13.072;2022-09-17T03:45:56;14.50;79.10
13707;DHT22;6925;47.816;13.072;2022-09-17T03:48:23;14.50;79.40
13707;DHT22;6925;47.816;13.072;2022-09-17T03:50:50;14.50;78.90
13707;DHT22;6925;47.816;13.072;2022-09-17T03:53:17;14.50;79.00
13707;DHT22;6925;47.816;13.072;2022-09-17T03:55:46;14.50;78.00
13707;DHT22;6925;47.816;13.072;2022-09-17T03:58:13;14.50;77.30
13707;DHT22;6925;47.816;13.072;2022-09-17T04:00:40;14.40;77.70
13707;DHT22;6925;47.816;13.072;2022-09-17T04:03:08;14.40;78.00
13707;DHT22;6925;47.816;13.072;2022-09-17T04:05:35;14.40;77.70
13707;DHT22;6925;47.816;13.072;2022-09-17T04:08:03;14.30;76.00
13707;DHT22;6925;47.816;13.072;2022-09-17T04:10:30;14.20;76.50
13707;DHT22;6925;47.816;13.072;2022-09-17T04:12:58;14.20;77.30
13707;DHT22;6925;47.816;13.072;2022-09-17T04:15:26;14.20;77.20
13707;DHT22;6925;47.816;13.072;2022-09-17T04:17:54;14.20;77.40
13707;DHT22;6925;47.816;13.072;2022-09-17T04:20:23;14.10;77.30
13707;DHT22;6925;47.816;13.072;2022-09-17T04:22:51;14.10;77.70
13707;DHT22;6925;47.816;13.072;2022-09-17T04:25:18;14.10;78.10
13707;DHT22;6925;47.816;13.072;2022-09-17T04:27:46;14.00;77.10
13707;DHT22;6925;47.816;13.072;2022-09-17T04:30:16;14.00;76.70
13707;DHT22;6925;47.816;13.072;2022-09-17T04:32:44;14.00;77.00
13707;DHT22;6925;47.816;13.072;2022-09-17T04:35:12;14.00;78.10
13707;DHT22;6925;47.816;13.072;2022-09-17T04:37:40;14.00;77.70
13707;DHT22;6925;47.816;13.072;2022-09-17T04:40:09;14.00;77.50
13707;DHT22;6925;47.816;13.072;2022-09-17T04:42:37;14.00;77.60
13707;DHT22;6925;47.816;13.072;2022-09-17T04:45:05;14.00;76.30
13707;DHT22;6925;47.816;13.072;2022-09-17T04:47:37;14.00;77.60
13707;DHT22;6925;47.816;13.072;2022-09-17T04:50:05;14.00;76.90
13707;DHT22;6925;47.816;13.072;2022-09-17T04:52:32;14.00;75.30
13707;DHT22;6925;47.816;13.072;2022-09-17T04:54:59;13.90;75.90
13707;DHT22;6925;47.816;13.072;2022-09-17T04:57:27;13.90;76.00
13707;DHT22;6925;47.816;13.072;2022-09-17T04:59:54;13.90;76.90
13707;DHT22;6925;47.816;13.072;2022-09-17T05:02:22;14.00;77.00
13707;DHT22;6925;47.816;13.072;2022-09-17T05:05:05;14.00;77.20
13707;DHT22;6925;47.816;13.072;2022-09-17T05:07:32;14.00;76.90
13707;DHT22;6925;47.816;13.072;2022-09-17T05:09:59;14.10;77.10
13707;DHT22;6925;47.816;13.072;2022-09-17T05:12:27;14.00;76.30
13707;DHT22;6925;47.816;13.072;2022-09-17T05:14:54;14.00;77.70
13707;DHT22;6925;47.816;13.072;2022-09-17T05:17:21;14.10;77.40
13707;DHT22;6925;47.816;13.072;2022-09-17T05:19:49;14.00;76.90
13707;DHT22;6925;47.816;13.072;2022-09-17T05:22:19;14.10;77.10
13707;DHT22;6925;47.816;13.072;2022-09-17T05:24:47;14.00;76.70
13707;DHT22;6925;47.816;13.072;2022-09-17T05:27:14;14.00;76.00
13707;DHT22;6925;47.816;13.072;2022-09-17T05:29:41;14.00;76.10
13707;DHT22;6925;47.816;13.072;2022-09-17T05:32:10;13.90;76.00
13707;DHT22;6925;47.816;13.072;2022-09-17T05:34:37;13.90;76.30
13707;DHT22;6925;47.816;13.072;2022-09-17T05:37:05;13.90;77.20
13707;DHT22;6925;47.816;13.072;2022-09-17T05:39:35;14.00;77.20
13707;DHT22;6925;47.816;13.072;2022-09-17T05:42:05;14.00;76.40
13707;DHT22;6925;47.816;13.072;2022-09-17T05:44:33;14.00;76.20
13707;DHT22;6925;47.816;13.072;2022-09-17T05:47:00;14.00;75.80
13707;DHT22;6925;47.816;13.072;2022-09-17T05:49:32;14.00;76.10
13707;DHT22;6925;47.816;13.072;2022-09-17T05:52:02;14.00;75.80
13707;DHT22;6925;47.816;13.072;2022-09-17T05:57:45;14.00;75.50
13707;DHT22;6925;47.816;13.072;2022-09-17T06:00:38;14.00;76.40
13707;DHT22;6925;47.816;13.072;2022-09-17T06:03:08;14.00;75.70
13707;DHT22;6925;47.816;13.072;2022-09-17T06:05:36;14.00;76.10
13707;DHT22;6925;47.816;13.072;2022-09-17T06:08:03;13.90;75.50
13707;DHT22;6925;47.816;13.072;2022-09-17T06:10:33;14.00;76.00
13707;DHT22;6925;47.816;13.072;2022-09-17T06:13:03;14.00;76.30
13707;DHT22;6925;47.816;13.072;2022-09-17T06:15:31;14.10;76.40
13707;DHT22;6925;47.816;13.072;2022-09-17T06:18:04;14.10;76.20
13707;DHT22;6925;47.816;13.072;2022-09-17T06:20:33;14.00;75.90
13707;DHT22;6925;47.816;13.072;2022-09-17T06:23:01;14.00;73.80
13707;DHT22;6925;47.816;13.072;2022-09-17T06:25:30;13.80;74.60
13707;DHT22;6925;47.816;13.072;2022-09-17T06:28:00;13.80;73.90
13707;DHT22;6925;47.816;13.072;2022-09-17T06:30:32;13.80;74.30
13707;DHT22;6925;47.816;13.072;2022-09-17T06:33:04;13.70;73.40
13707;DHT22;6925;47.816;13.072;2022-09-17T06:35:46;13.70;73.70
13707;DHT22;6925;47.816;13.072;2022-09-17T06:38:33;13.60;73.10
13707;DHT22;6925;47.816;13.072;2022-09-17T06:41:02;13.70;73.50
13707;DHT22;6925;47.816;13.072;2022-09-17T06:43:30;13.60;72.60
13707;DHT22;6925;47.816;13.072;2022-09-17T06:45:59;13.50;74.40
13707;DHT22;6925;47.816;13.072;2022-09-17T06:48:27;13.60;73.20
13707;DHT22;6925;47.816;13.072;2022-09-17T06:50:55;13.60;72.80
13707;DHT22;6925;47.816;13.072;2022-09-17T06:53:44;13.60;73.50
13707;DHT22;6925;47.816;13.072;2022-09-17T06:56:12;13.60;73.00
13707;DHT22;6925;47.816;13.072;2022-09-17T06:58:39;13.60;72.90
13707;DHT22;6925;47.816;13.072;2022-09-17T07:01:10;13.50;71.80
13707;DHT22;6925;47.816;13.072;2022-09-17T07:03:38;13.40;72.10
13707;DHT22;6925;47.816;13.072;2022-09-17T07:06:07;13.40;72.70
13707;DHT22;6925;47.816;13.072;2022-09-17T07:08:35;13.40;73.50
13707;DHT22;6925;47.816;13.072;2022-09-17T07:11:04;13.50;74.10
13707;DHT22;6925;47.816;13.072;2022-09-17T07:13:33;13.50;73.80
13707;DHT22;6925;47.816;13.072;2022-09-17T07:16:03;13.60;73.30
13707;DHT22;6925;47.816;13.072;2022-09-17T07:18:32;13.60;73.50
13707;DHT22;6925;47.816;13.072;2022-09-17T07:21:04;13.60;73.30
13707;DHT22;6925;47.816;13.072;2022-09-17T07:23:32;13.60;73.70
13707;DHT22;6925;47.816;13.072;2022-09-17T07:26:01;13.60;73.90
13707;DHT22;6925;47.816;13.072;2022-09-17T07:28:30;13.60;73.90
13707;DHT22;6925;47.816;13.072;2022-09-17T07:31:01;13.60;74.20
13707;DHT22;6925;47.816;13.072;2022-09-17T07:33:28;13.60;73.90
13707;DHT22;6925;47.816;13.072;2022-09-17T07:36:02;13.60;73.80
13707;DHT22;6925;47.816;13.072;2022-09-17T07:38:29;13.60;74.20
13707;DHT22;6925;47.816;13.072;2022-09-17T07:41:02;13.60;74.30
13707;DHT22;6925;47.816;13.072;2022-09-17T07:43:31;13.60;74.10
13707;DHT22;6925;47.816;13.072;2022-09-17T07:46:00;13.60;74.40
13707;DHT22;6925;47.816;13.072;2022-09-17T07:48:28;13.60;74.20
13707;DHT22;6925;47.816;13.072;2022-09-17T07:51:16;13.60;75.00
13707;DHT22;6925;47.816;13.072;2022-09-17T07:53:43;13.60;73.80
13707;DHT22;6925;47.816;13.072;2022-09-17T07:56:11;13.60;73.40
13707;DHT22;6925;47.816;13.072;2022-09-17T08:01:52;13.50;74.20
13707;DHT22;6925;47.816;13.072;2022-09-17T08:04:19;13.50;74.70
13707;DHT22;6925;47.816;13.072;2022-09-17T08:06:48;13.50;74.70
13707;DHT22;6925;47.816;13.072;2022-09-17T08:09:17;13.60;75.20
13707;DHT22;6925;47.816;13.072;2022-09-17T08:11:44;13.60;76.00
13707;DHT22;6925;47.816;13.072;2022-09-17T08:14:13;13.60;74.20
13707;DHT22;6925;47.816;13.072;2022-09-17T08:16:41;13.60;74.60
13707;DHT22;6925;47.816;13.072;2022-09-17T08:19:10;13.70;74.60
13707;DHT22;6925;47.816;13.072;2022-09-17T08:21:38;13.70;74.70
13707;DHT22;6925;47.816;13.072;2022-09-17T08:24:21;13.80;74.30
13707;DHT22;6925;47.816;13.072;2022-09-17T08:34:45;13.50;72.40
13707;DHT22;6925;47.816;13.072;2022-09-17T08:53:38;13.30;71.10
13707;DHT22;6925;47.816;13.072;2022-09-17T09:04:21;13.40;70.70
13707;DHT22;6925;47.816;13.072;2022-09-17T09:18:12;13.40;70.50
13707;DHT22;6925;47.816;13.072;2022-09-17T12:41:19;13.50;76.10
13707;DHT22;6925;47.816;13.072;2022-09-17T13:00:21;13.80;77.20
13707;DHT22;6925;47.816;13.072;2022-09-17T13:02:52;13.90;76.10
13707;DHT22;6925;47.816;13.072;2022-09-17T13:05:45;13.90;76.70
13707;DHT22;6925;47.816;13.072;2022-09-17T13:08:46;13.90;77.10
13707;DHT22;6925;47.816;13.072;2022-09-17T13:14:27;13.90;75.30
13707;DHT22;6925;47.816;13.072;2022-09-17T13:17:03;13.80;76.70
13707;DHT22;6925;47.816;13.072;2022-09-17T13:19:46;13.80;76.90
13707;DHT22;6925;47.816;13.072;2022-09-17T13:22:17;13.80;77.60
13707;DHT22;6925;47.816;13.072;2022-09-17T13:24:46;13.80;77.20
13707;DHT22;6925;47.816;13.072;2022-09-17T13:27:20;13.90;78.10
13707;DHT22;6925;47.816;13.072;2022-09-17T13:29:58;14.00;78.10
13707;DHT22;6925;47.816;13.072;2022-09-17T13:32:50;13.90;77.10
13707;DHT22;6925;47.816;13.072;2022-09-17T13:35:57;13.90;78.00
13707;DHT22;6925;47.816;13.072;2022-09-17T13:42:02;13.90;77.10
13707;DHT22;6925;47.816;13.072;2022-09-17T13:44:34;13.90;78.30
13707;DHT22;6925;47.816;13.072;2022-09-17T13:47:19;13.90;76.90
13707;DHT22;6925;47.816;13.072;2022-09-17T13:49:52;13.70;74.40
13707;DHT22;6925;47.816;13.072;2022-09-17T13:52:35;13.40;75.60
13707;DHT22;6925;47.816;13.072;2022-09-17T13:55:05;13.10;75.90
13707;DHT22;6925;47.816;13.072;2022-09-17T13:57:44;12.90;75.90
13707;DHT22;6925;47.816;13.072;2022-09-17T14:00:47;12.80;75.70
13707;DHT22;6925;47.816;13.072;2022-09-17T14:03:48;12.70;76.20
13707;DHT22;6925;47.816;13.072;2022-09-17T14:06:46;12.70;77.70
13707;DHT22;6925;47.816;13.072;2022-09-17T14:09:52;12.70;77.70
13707;DHT22;6925;47.816;13.072;2022-09-17T14:15:59;13.00;78.30
13707;DHT22;6925;47.816;13.072;2022-09-17T14:18:42;13.10;77.80
13707;DHT22;6925;47.816;13.072;2022-09-17T14:21:17;13.20;78.00
13707;DHT22;6925;47.816;13.072;2022-09-17T14:23:54;13.20;77.50
13707;DHT22;6925;47.816;13.072;2022-09-17T14:26:32;13.20;76.90
13707;DHT22;6925;47.816;13.072;2022-09-17T14:29:07;13.10;76.70
13707;DHT22;6925;47.816;13.072;2022-09-17T14:31:40;13.10;76.50
13707;DHT22;6925;47.816;13.072;2022-09-17T14:34:13;13.20;77.30
13707;DHT22;6925;47.816;13.072;2022-09-17T14:36:43;13.20;76.70
13707;DHT22;6925;47.816;13.072;2022-09-17T14:39:16;13.20;76.90
13707;DHT22;6925;47.816;13.072;2022-09-17T14:41:47;13.20;76.40
13707;DHT22;6925;47.816;13.072;2022-09-17T14:44:19;13.20;77.50
13707;DHT22;6925;47.816;13.072;2022-09-17T14:46:53;13.20;76.80
13707;DHT22;6925;47.816;13.072;2022-09-17T14:49:23;13.10;77.10
13707;DHT22;6925;47.816;13.072;2022-09-17T14:51:51;13.10;77.20
13707;DHT22;6925;47.816;13.072;2022-09-17T14:54:25;13.10;76.40
13707;DHT22;6925;47.816;13.072;2022-09-17T14:57:02;13.10;76.50
13707;DHT22;6925;47.816;13.072;2022-09-17T14:59:49;13.10;75.90
13707;DHT22;6925;47.816;13.072;2022-09-17T15:02:44;13.00;74.90
13707;DHT22;6925;47.816;13.072;2022-09-17T15:05:25;12.90;76.30
13707;DHT22;6925;47.816;13.072;2022-09-17T15:08:11;13.00;76.10
13707;DHT22;6925;47.816;13.072;2022-09-17T15:10:48;12.90;75.70
13707;DHT22;6925;47.816;13.072;2022-09-17T15:13:25;12.90;76.20
13707;DHT22;6925;47.816;13.072;2022-09-17T15:16:12;12.90;76.30
13707;DHT22;6925;47.816;13.072;2022-09-17T15:18:48;12.90;76.70
13707;DHT22;6925;47.816;13.072;2022-09-17T15:21:26;13.00;74.80
13707;DHT22;6925;47.816;13.072;2022-09-17T15:26:42;13.00;76.30
13707;DHT22;6925;47.816;13.072;2022-09-17T15:29:18;13.00;75.40
13707;DHT22;6925;47.816;13.072;2022-09-17T15:31:50;13.00;75.40
13707;DHT22;6925;47.816;13.072;2022-09-17T15:34:21;13.10;75.60
13707;DHT22;6925;47.816;13.072;2022-09-17T15:37:16;13.10;75.70
13707;DHT22;6925;47.816;13.072;2022-09-17T15:39:48;13.10;75.80
13707;DHT22;6925;47.816;13.072;2022-09-17T15:42:32;13.10;75.90
13707;DHT22;6925;47.816;13.072;2022-09-17T15:45:07;13.10;75.20
13707;DHT22;6925;47.816;13.072;2022-09-17T15:47:51;13.10;76.10
13707;DHT22;6925;47.816;13.072;2022-09-17T15:50:23;13.20;76.20
13707;DHT22;6925;47.816;13.072;2022-09-17T15:53:00;13.20;74.90
13707;DHT22;6925;47.816;13.072;2022-09-17T15:55:41;13.20;74.30
13707;DHT22;6925;47.816;13.072;2022-09-17T15:58:24;13.20;74.90
13707;DHT22;6925;47.816;13.072;2022-09-17T16:04:24;13.30;75.70
13707;DHT22;6925;47.816;13.072;2022-09-17T16:09:41;13.20;73.30
13707;DHT22;6925;47.816;13.072;2022-09-17T16:12:11;13.10;73.60
13707;DHT22;6925;47.816;13.072;2022-09-17T16:14:44;13.00;74.30
13707;DHT22;6925;47.816;13.072;2022-09-17T16:17:27;13.00;74.80
13707;DHT22;6925;47.816;13.072;2022-09-17T16:19:57;13.00;74.70
13707;DHT22;6925;47.816;13.072;2022-09-17T16:22:24;13.00;74.60
13707;DHT22;6925;47.816;13.072;2022-09-17T16:24:54;13.10;75.70
13707;DHT22;6925;47.816;13.072;2022-09-17T16:27:21;13.10;74.40
13707;DHT22;6925;47.816;13.072;2022-09-17T16:29:55;13.10;74.80
13707;DHT22;6925;47.816;13.072;2022-09-17T16:32:23;13.10;74.20
13707;DHT22;6925;47.816;13.072;2022-09-17T16:34:51;13.00;73.60
13707;DHT22;6925;47.816;13.072;2022-09-17T16:37:19;13.00;73.80
13707;DHT22;6925;47.816;13.072;2022-09-17T16:39:46;13.00;73.70
13707;DHT22;6925;47.816;13.072;2022-09-17T16:42:13;12.90;73.40
13707;DHT22;6925;47.816;13.072;2022-09-17T16:44:40;12.80;71.90
13707;DHT22;6925;47.816;13.072;2022-09-17T16:47:09;12.70;73.00
13707;DHT22;6925;47.816;13.072;2022-09-17T16:49:39;12.70;74.50
13707;DHT22;6925;47.816;13.072;2022-09-17T16:52:07;12.80;75.30
13707;DHT22;6925;47.816;13.072;2022-09-17T16:54:34;12.90;74.90
13707;DHT22;6925;47.816;13.072;2022-09-17T16:57:01;12.90;76.10
13707;DHT22;6925;47.816;13.072;2022-09-17T16:59:29;12.90;75.00
13707;DHT22;6925;47.816;13.072;2022-09-17T17:01:56;12.80;75.30
13707;DHT22;6925;47.816;13.072;2022-09-17T17:04:25;12.80;75.60
13707;DHT22;6925;47.816;13.072;2022-09-17T17:06:52;12.60;74.60
13707;DHT22;6925;47.816;13.072;2022-09-17T17:09:20;12.40;74.90
13707;DHT22;6925;47.816;13.072;2022-09-17T17:11:49;12.20;74.80
13707;DHT22;6925;47.816;13.072;2022-09-17T17:14:20;12.10;74.90
13707;DHT22;6925;47.816;13.072;2022-09-17T17:16:47;11.90;75.80
13707;DHT22;6925;47.816;13.072;2022-09-17T17:19:14;11.80;75.30
13707;DHT22;6925;47.816;13.072;2022-09-17T17:21:43;11.80;75.40
13707;DHT22;6925;47.816;13.072;2022-09-17T17:24:11;11.80;76.40
13707;DHT22;6925;47.816;13.072;2022-09-17T17:26:39;11.80;76.10
13707;DHT22;6925;47.816;13.072;2022-09-17T17:29:06;11.90;76.50
13707;DHT22;6925;47.816;13.072;2022-09-17T17:31:34;11.90;77.00
13707;DHT22;6925;47.816;13.072;2022-09-17T17:34:02;12.00;77.10
13707;DHT22;6925;47.816;13.072;2022-09-17T17:36:29;12.10;78.20
13707;DHT22;6925;47.816;13.072;2022-09-17T17:38:59;12.20;78.70
13707;DHT22;6925;47.816;13.072;2022-09-17T17:41:26;12.40;78.90
13707;DHT22;6925;47.816;13.072;2022-09-17T17:43:54;12.40;78.80
13707;DHT22;6925;47.816;13.072;2022-09-17T17:46:22;12.50;78.80
13707;DHT22;6925;47.816;13.072;2022-09-17T17:48:50;12.60;79.50
13707;DHT22;6925;47.816;13.072;2022-09-17T17:51:17;12.60;78.50
13707;DHT22;6925;47.816;13.072;2022-09-17T17:53:45;12.70;78.60
13707;DHT22;6925;47.816;13.072;2022-09-17T17:56:16;12.70;78.60
13707;DHT22;6925;47.816;13.072;2022-09-17T17:58:45;12.70;78.30
13707;DHT22;6925;47.816;13.072;2022-09-17T18:01:14;12.80;78.30
13707;DHT22;6925;47.816;13.072;2022-09-17T18:03:41;12.80;78.30
13707;DHT22;6925;47.816;13.072;2022-09-17T18:06:08;12.80;78.10
13707;DHT22;6925;47.816;13.072;2022-09-17T18:08:37;12.80;77.90
13707;DHT22;6925;47.816;13.072;2022-09-17T18:11:05;12.80;78.40
13707;DHT22;6925;47.816;13.072;2022-09-17T18:13:35;12.80;78.30
13707;DHT22;6925;47.816;13.072;2022-09-17T18:16:05;12.70;78.00
13707;DHT22;6925;47.816;13.072;2022-09-17T18:18:34;12.80;78.00
13707;DHT22;6925;47.816;13.072;2022-09-17T18:21:03;12.70;77.70
13707;DHT22;6925;47.816;13.072;2022-09-17T18:23:33;12.50;77.40
13707;DHT22;6925;47.816;13.072;2022-09-17T18:26:01;12.50;78.40
13707;DHT22;6925;47.816;13.072;2022-09-17T18:28:35;12.50;78.00
13707;DHT22;6925;47.816;13.072;2022-09-17T18:31:04;12.40;78.00
13707;DHT22;6925;47.816;13.072;2022-09-17T18:33:32;12.40;77.60
13707;DHT22;6925;47.816;13.072;2022-09-17T18:36:00;12.40;78.50
13707;DHT22;6925;47.816;13.072;2022-09-17T18:38:31;12.50;77.90
13707;DHT22;6925;47.816;13.072;2022-09-17T18:41:03;12.40;75.70
13707;DHT22;6925;47.816;13.072;2022-09-17T18:43:34;12.20;74.70
13707;DHT22;6925;47.816;13.072;2022-09-17T18:46:04;12.10;77.40
13707;DHT22;6925;47.816;13.072;2022-09-17T18:48:35;12.20;78.10
13707;DHT22;6925;47.816;13.072;2022-09-17T18:51:04;12.20;78.30
13707;DHT22;6925;47.816;13.072;2022-09-17T18:53:33;12.30;77.10
13707;DHT22;6925;47.816;13.072;2022-09-17T18:56:04;12.30;76.40
13707;DHT22;6925;47.816;13.072;2022-09-17T18:58:32;12.30;76.60
13707;DHT22;6925;47.816;13.072;2022-09-17T19:01:05;12.20;76.70
13707;DHT22;6925;47.816;13.072;2022-09-17T19:03:33;12.20;77.00
13707;DHT22;6925;47.816;13.072;2022-09-17T19:06:01;12.10;77.20
13707;DHT22;6925;47.816;13.072;2022-09-17T19:08:29;12.10;77.10
13707;DHT22;6925;47.816;13.072;2022-09-17T19:10:56;12.00;74.20
13707;DHT22;6925;47.816;13.072;2022-09-17T19:13:23;11.90;75.60
13707;DHT22;6925;47.816;13.072;2022-09-17T19:15:52;11.90;75.60
13707;DHT22;6925;47.816;13.072;2022-09-17T19:18:24;11.90;74.40
13707;DHT22;6925;47.816;13.072;2022-09-17T19:20:58;11.90;75.70
13707;DHT22;6925;47.816;13.072;2022-09-17T19:23:25;11.90;74.70
13707;DHT22;6925;47.816;13.072;2022-09-17T19:25:52;11.90;74.40
13707;DHT22;6925;47.816;13.072;2022-09-17T19:28:19;11.90;74.40
13707;DHT22;6925;47.816;13.072;2022-09-17T19:30:48;11.90;74.60
13707;DHT22;6925;47.816;13.072;2022-09-17T19:33:16;11.90;75.90
13707;DHT22;6925;47.816;13.072;2022-09-17T19:35:45;12.00;74.00
13707;DHT22;6925;47.816;13.072;2022-09-17T19:38:15;12.00;74.20
13707;DHT22;6925;47.816;13.072;2022-09-17T19:40:43;12.00;75.00
13707;DHT22;6925;47.816;13.072;2022-09-17T19:43:10;12.00;74.30
13707;DHT22;6925;47.816;13.072;2022-09-17T19:45:37;12.10;74.70
13707;DHT22;6925;47.816;13.072;2022-09-17T19:48:04;12.10;73.90
13707;DHT22;6925;47.816;13.072;2022-09-17T19:50:31;12.20;75.20
13707;DHT22;6925;47.816;13.072;2022-09-17T19:53:00;12.20;74.90
13707;DHT22;6925;47.816;13.072;2022-09-17T19:55:27;12.20;74.80
13707;DHT22;6925;47.816;13.072;2022-09-17T19:57:55;12.10;75.70
13707;DHT22;6925;47.816;13.072;2022-09-17T20:00:28;12.10;74.50
13707;DHT22;6925;47.816;13.072;2022-09-17T20:02:55;12.00;73.40
13707;DHT22;6925;47.816;13.072;2022-09-17T20:05:23;12.00;76.00
13707;DHT22;6925;47.816;13.072;2022-09-17T20:07:50;12.10;75.20
13707;DHT22;6925;47.816;13.072;2022-09-17T20:10:18;12.10;73.30
13707;DHT22;6925;47.816;13.072;2022-09-17T20:12:46;12.10;74.00
13707;DHT22;6925;47.816;13.072;2022-09-17T20:15:13;12.20;74.00
13707;DHT22;6925;47.816;13.072;2022-09-17T20:17:41;12.20;73.60
13707;DHT22;6925;47.816;13.072;2022-09-17T20:20:08;12.20;73.00
13707;DHT22;6925;47.816;13.072;2022-09-17T20:22:36;12.10;72.80
13707;DHT22;6925;47.816;13.072;2022-09-17T20:25:04;12.10;72.90
13707;DHT22;6925;47.816;13.072;2022-09-17T20:27:32;12.10;74.00
13707;DHT22;6925;47.816;13.072;2022-09-17T20:30:00;12.10;73.10
13707;DHT22;6925;47.816;13.072;2022-09-17T20:32:27;12.20;74.10
13707;DHT22;6925;47.816;13.072;2022-09-17T20:34:54;12.20;72.50
13707;DHT22;6925;47.816;13.072;2022-09-17T20:37:21;12.10;72.70
13707;DHT22;6925;47.816;13.072;2022-09-17T20:39:49;12.10;72.60
13707;DHT22;6925;47.816;13.072;2022-09-17T20:42:16;12.20;71.70
13707;DHT22;6925;47.816;13.072;2022-09-17T20:44:45;12.10;71.50
13707;DHT22;6925;47.816;13.072;2022-09-17T20:47:12;12.00;72.50